Lake Worth, FL (33462)

6:27 PM EDT on April 25, 2017 (GMT -0400)
TWO GEMS Wind & Weather | | Change Station

Elev 14 ft 26.59 °N, 80.11 °W | Updated 18 days ago

Overcast
Overcast
78.3 °F
Feels Like 78 °F
N
0.0
Wind Variable Wind from WSW
Gusts 0.0 mph

Today
High -- | Low -- °F
--% Chance of Precip.
Yesterday
High -- | Low -- °F
Precip. -- in
Pressure 29.82 in
Visibility 10.0 miles
Clouds Mostly Cloudy 5500 ft
Heat Index 78 °F
Dew Point 43 °F
Humidity 29%
Rainfall 0.00 in
Snow Depth Not available.
6:47 AM 7:49 PM
Waning Crescent, 0% visible
METAR KPBI 252153Z 24008KT 10SM BKN055 27/13 A2982 RMK AO2 SLP097 T02670133
Pressure 29.82 in
Visibility 10.0 miles
Clouds Mostly Cloudy 5500 ft
Heat Index 78 °F
Dew Point 43 °F
Humidity 29%
Rainfall 0.00 in
Snow Depth Not available.
6:47 AM 7:49 PM
Waning Crescent, 0% visible
METAR KPBI 252153Z 24008KT 10SM BKN055 27/13 A2982 RMK AO2 SLP097 T02670133

Get Severe Weather Alerts

Thanks for signing up!

Be on the lookout for a verification email in your inbox.

You'll start receiving the daily forecast at 8 AM.

×

10-Day Weather Forecast

Almanac

Astronomy

Apr. 25, 2017 Rise Set
Actual Time
Civil Twilight
Nautical Twilight
Astronomical Twilight
Moon
Length of Visible Light
Length of Day
Tomorrow will be .
, % of the Moon is Illuminated

Today's Extremes

State Highs State Lows

Community

WunderPhotos

WunderBlog® & News

Nearby

Air Quality

  Air Quality AQ Index Pollutant
Not available.

Snow Depth

Station Depth Elevation

Earthquake Activity

City Distance Mag. Time & Date
Minimum magnitude displayed is 2.5.

Coastal Water Temperatures

Place Temperature

Stations

Nearby Weather Stations

Station Location Temp. Windchill Dew Point Humidity Wind Precip. Elev Updated Type
                   

Watches & Warnings

There are currently no watches in effect.